82610 USSS-UNNT
Flight info
| Callsign | 82610 |
|---|---|
| Flight time | 1h 57m |
| Altitude | 35000 |
| Route | K0870F350 ANATU P135 GIBUL P983 TINRI T448 RUBOR A300 ML R814 SZ W1 GOLIM |
| Aircraft | T154/M-SDGIRWY/S |
Departure
| Time | 2026-04-29 09:51 |
|---|---|
| Airport | Koltsovo Airport (USSS) |
Arrival
| Time | 2026-04-29 11:48 |
|---|---|
| Airport | Novosibirsk Tolmachevo Airport (UNNT) |
| Time | Latitude | Longitude | Altitude | Speed | Heading |
|---|---|---|---|---|---|
| 2026-04-29 09:27 | 56.74860 | 60.82656 | 780 ft | 0 kts | 315° |
| 2026-04-29 09:44 | 56.74860 | 60.82655 | 780 ft | 0 kts | 315° |
| 2026-04-29 09:44 | 56.74865 | 60.82647 | 780 ft | 1 kts | 315° |
| 2026-04-29 09:45 | 56.74872 | 60.82635 | 780 ft | 2 kts | 315° |
| 2026-04-29 09:45 | 56.74888 | 60.82598 | 780 ft | 4 kts | 291° |
| 2026-04-29 09:45 | 56.74867 | 60.82534 | 780 ft | 8 kts | 221° |
| 2026-04-29 09:45 | 56.74831 | 60.82450 | 780 ft | 8 kts | 239° |
| 2026-04-29 09:46 | 56.74794 | 60.82366 | 780 ft | 8 kts | 227° |
| 2026-04-29 09:46 | 56.74768 | 60.82270 | 780 ft | 8 kts | 253° |
| 2026-04-29 09:46 | 56.74752 | 60.82213 | 780 ft | 7 kts | 221° |
| 2026-04-29 09:46 | 56.74749 | 60.82210 | 780 ft | 7 kts | 214° |
| 2026-04-29 09:47 | 56.74694 | 60.82201 | 780 ft | 7 kts | 181° |
| 2026-04-29 09:47 | 56.74641 | 60.82201 | 780 ft | 7 kts | 180° |
| 2026-04-29 09:47 | 56.74590 | 60.82200 | 780 ft | 7 kts | 181° |
| 2026-04-29 09:47 | 56.74543 | 60.82199 | 780 ft | 6 kts | 180° |
| 2026-04-29 09:48 | 56.74496 | 60.82198 | 780 ft | 6 kts | 181° |
| 2026-04-29 09:48 | 56.74448 | 60.82197 | 780 ft | 7 kts | 181° |
| 2026-04-29 09:48 | 56.74387 | 60.82191 | 780 ft | 10 kts | 184° |
| 2026-04-29 09:48 | 56.74295 | 60.82179 | 780 ft | 15 kts | 184° |
| 2026-04-29 09:49 | 56.74196 | 60.82167 | 780 ft | 13 kts | 184° |
| 2026-04-29 09:49 | 56.74114 | 60.82157 | 780 ft | 10 kts | 184° |
| 2026-04-29 09:49 | 56.74067 | 60.82081 | 780 ft | 9 kts | 268° |
| 2026-04-29 09:49 | 56.74068 | 60.82032 | 780 ft | 0 kts | 274° |
| 2026-04-29 09:50 | 56.74070 | 60.81996 | 780 ft | 17 kts | 274° |
| 2026-04-29 09:50 | 56.74102 | 60.81256 | 781 ft | 99 kts | 272° |
| 2026-04-29 09:51 | 56.74173 | 60.79577 | 888 ft | 156 kts | 273° |
| 2026-04-29 09:51 | 56.74266 | 60.78067 | 1407 ft | 162 kts | 271° |
| 2026-04-29 09:51 | 56.74372 | 60.75957 | 2050 ft | 179 kts | 270° |
| 2026-04-29 09:51 | 56.74457 | 60.73588 | 2756 ft | 201 kts | 271° |
| 2026-04-29 09:52 | 56.74551 | 60.71004 | 3567 ft | 210 kts | 271° |
| 2026-04-29 09:52 | 56.74640 | 60.68383 | 4479 ft | 207 kts | 271° |
| 2026-04-29 09:52 | 56.74736 | 60.65782 | 5276 ft | 208 kts | 272° |
| 2026-04-29 09:52 | 56.74845 | 60.63139 | 5956 ft | 215 kts | 271° |
| 2026-04-29 09:53 | 56.74784 | 60.60431 | 6605 ft | 219 kts | 253° |
| 2026-04-29 09:53 | 56.74057 | 60.58030 | 7426 ft | 217 kts | 225° |
| 2026-04-29 09:53 | 56.72781 | 60.56670 | 8127 ft | 224 kts | 197° |
| 2026-04-29 09:53 | 56.71173 | 60.56634 | 8686 ft | 241 kts | 169° |
| 2026-04-29 09:54 | 56.69715 | 60.58104 | 9316 ft | 254 kts | 141° |
| 2026-04-29 09:54 | 56.68662 | 60.60806 | 9923 ft | 268 kts | 114° |
| 2026-04-29 09:54 | 56.68347 | 60.64136 | 10605 ft | 276 kts | 87° |
| 2026-04-29 09:54 | 56.68818 | 60.67562 | 11074 ft | 291 kts | 66° |
| 2026-04-29 09:55 | 56.69852 | 60.70823 | 11613 ft | 300 kts | 57° |
| 2026-04-29 09:55 | 56.70954 | 60.74039 | 12407 ft | 299 kts | 58° |
| 2026-04-29 09:55 | 56.72023 | 60.77248 | 13203 ft | 297 kts | 59° |
| 2026-04-29 09:55 | 56.73092 | 60.80477 | 13901 ft | 299 kts | 59° |
| 2026-04-29 09:56 | 56.74170 | 60.83740 | 14480 ft | 305 kts | 59° |
| 2026-04-29 09:56 | 56.75479 | 60.86756 | 15193 ft | 303 kts | 39° |
| 2026-04-29 09:56 | 56.77228 | 60.88744 | 15911 ft | 297 kts | 17° |
| 2026-04-29 09:56 | 56.79222 | 60.89911 | 16397 ft | 304 kts | 14° |
| 2026-04-29 09:57 | 56.81283 | 60.91101 | 16837 ft | 313 kts | 15° |
| 2026-04-29 09:57 | 56.83373 | 60.92355 | 17323 ft | 321 kts | 15° |
| 2026-04-29 09:57 | 56.85509 | 60.93644 | 17849 ft | 327 kts | 15° |
| 2026-04-29 09:57 | 56.87634 | 60.95131 | 18388 ft | 333 kts | 27° |
| 2026-04-29 09:58 | 56.89490 | 60.97800 | 18928 ft | 340 kts | 49° |
| 2026-04-29 09:58 | 56.90732 | 61.01451 | 19459 ft | 343 kts | 68° |
| 2026-04-29 09:58 | 56.91602 | 61.05539 | 19977 ft | 348 kts | 71° |
| 2026-04-29 09:58 | 56.92466 | 61.09755 | 20497 ft | 352 kts | 70° |
| 2026-04-29 09:59 | 56.93389 | 61.14001 | 21035 ft | 356 kts | 68° |
| 2026-04-29 09:59 | 56.94334 | 61.18175 | 21568 ft | 360 kts | 68° |
| 2026-04-29 09:59 | 56.95327 | 61.22409 | 22110 ft | 363 kts | 67° |
| 2026-04-29 09:59 | 56.96336 | 61.26656 | 22600 ft | 368 kts | 67° |
| 2026-04-29 10:00 | 56.97374 | 61.31025 | 23051 ft | 374 kts | 67° |
| 2026-04-29 10:00 | 56.98418 | 61.35429 | 23531 ft | 378 kts | 67° |
| 2026-04-29 10:00 | 56.99466 | 61.39862 | 24018 ft | 381 kts | 67° |
| 2026-04-29 10:00 | 57.00515 | 61.44309 | 24521 ft | 384 kts | 67° |
| 2026-04-29 10:01 | 57.01575 | 61.48815 | 24996 ft | 388 kts | 67° |
| 2026-04-29 10:01 | 57.02661 | 61.53439 | 25442 ft | 393 kts | 67° |
| 2026-04-29 10:01 | 57.03736 | 61.58025 | 25855 ft | 398 kts | 67° |
| 2026-04-29 10:01 | 57.04855 | 61.62809 | 26228 ft | 404 kts | 67° |
| 2026-04-29 10:02 | 57.05960 | 61.67554 | 26592 ft | 409 kts | 68° |
| 2026-04-29 10:02 | 57.07074 | 61.72354 | 26903 ft | 416 kts | 68° |
| 2026-04-29 10:02 | 57.08223 | 61.77318 | 27268 ft | 421 kts | 68° |
| 2026-04-29 10:02 | 57.09377 | 61.82304 | 27674 ft | 426 kts | 68° |
| 2026-04-29 10:03 | 57.10530 | 61.87284 | 28172 ft | 428 kts | 68° |
| 2026-04-29 10:03 | 57.11720 | 61.92370 | 28588 ft | 431 kts | 68° |
| 2026-04-29 10:03 | 57.12901 | 61.97445 | 29023 ft | 434 kts | 68° |
| 2026-04-29 10:03 | 57.14067 | 62.02589 | 29454 ft | 436 kts | 71° |
| 2026-04-29 10:04 | 57.14948 | 62.07959 | 29855 ft | 438 kts | 76° |
| 2026-04-29 10:04 | 57.15727 | 62.13447 | 30288 ft | 441 kts | 76° |
| 2026-04-29 10:04 | 57.16531 | 62.19007 | 30701 ft | 445 kts | 76° |
| 2026-04-29 10:04 | 57.17349 | 62.24491 | 31127 ft | 447 kts | 75° |
| 2026-04-29 10:05 | 57.18181 | 62.29963 | 31510 ft | 451 kts | 75° |
| 2026-04-29 10:05 | 57.19041 | 62.35587 | 31927 ft | 453 kts | 75° |
| 2026-04-29 10:05 | 57.19896 | 62.41167 | 32321 ft | 456 kts | 75° |
| 2026-04-29 10:05 | 57.20759 | 62.46818 | 32709 ft | 459 kts | 75° |
| 2026-04-29 10:06 | 57.21633 | 62.52554 | 33071 ft | 462 kts | 75° |
| 2026-04-29 10:06 | 57.22506 | 62.58306 | 33444 ft | 465 kts | 75° |
| 2026-04-29 10:06 | 57.23375 | 62.64054 | 33817 ft | 468 kts | 75° |
| 2026-04-29 10:06 | 57.24236 | 62.69773 | 34160 ft | 470 kts | 76° |
| 2026-04-29 10:07 | 57.25118 | 62.75660 | 34519 ft | 472 kts | 76° |
| 2026-04-29 10:07 | 57.25995 | 62.81529 | 34793 ft | 476 kts | 76° |
| 2026-04-29 10:07 | 57.26872 | 62.87419 | 35002 ft | 482 kts | 76° |
| 2026-04-29 10:07 | 57.27769 | 62.93459 | 35081 ft | 491 kts | 76° |
| 2026-04-29 10:08 | 57.29589 | 63.05776 | 35118 ft | 496 kts | 76° |
| 2026-04-29 10:08 | 57.31408 | 63.18185 | 35134 ft | 503 kts | 77° |
| 2026-04-29 10:09 | 57.33223 | 63.30654 | 35121 ft | 500 kts | 77° |
| 2026-04-29 10:09 | 57.35033 | 63.43195 | 35129 ft | 501 kts | 77° |
| 2026-04-29 10:10 | 57.36820 | 63.55667 | 35126 ft | 501 kts | 77° |
| 2026-04-29 10:10 | 57.38588 | 63.68118 | 35112 ft | 500 kts | 77° |
| 2026-04-29 10:11 | 57.39338 | 63.74382 | 35142 ft | 496 kts | 89° |
| 2026-04-29 10:11 | 57.39104 | 63.80688 | 35136 ft | 487 kts | 108° |
| 2026-04-29 10:11 | 57.38288 | 63.86828 | 35238 ft | 489 kts | 109° |
| 2026-04-29 10:11 | 57.37403 | 63.92884 | 35161 ft | 490 kts | 109° |
| 2026-04-29 10:12 | 57.35640 | 64.04925 | 35138 ft | 484 kts | 109° |
| 2026-04-29 10:12 | 57.33893 | 64.17026 | 35134 ft | 488 kts | 109° |
| 2026-04-29 10:13 | 57.32144 | 64.29161 | 35127 ft | 488 kts | 109° |
| 2026-04-29 10:13 | 57.30374 | 64.41345 | 35130 ft | 488 kts | 109° |
| 2026-04-29 10:14 | 57.28598 | 64.53477 | 35129 ft | 488 kts | 109° |
| 2026-04-29 10:14 | 57.26826 | 64.65512 | 35128 ft | 487 kts | 110° |
| 2026-04-29 10:15 | 57.25037 | 64.77601 | 35138 ft | 488 kts | 110° |
| 2026-04-29 10:15 | 57.23236 | 64.89668 | 35133 ft | 488 kts | 110° |
| 2026-04-29 10:16 | 57.21416 | 65.01751 | 35136 ft | 488 kts | 110° |
| 2026-04-29 10:16 | 57.19598 | 65.13738 | 35128 ft | 486 kts | 110° |
| 2026-04-29 10:17 | 57.17776 | 65.25677 | 35123 ft | 480 kts | 110° |
| 2026-04-29 10:17 | 57.16161 | 65.37872 | 35144 ft | 502 kts | 100° |
| 2026-04-29 10:18 | 57.15549 | 65.50664 | 35121 ft | 495 kts | 99° |
| 2026-04-29 10:18 | 57.14837 | 65.63287 | 35137 ft | 497 kts | 100° |
| 2026-04-29 10:19 | 57.14033 | 65.75887 | 35137 ft | 496 kts | 101° |
| 2026-04-29 10:19 | 57.13194 | 65.88547 | 35135 ft | 496 kts | 101° |
| 2026-04-29 10:20 | 57.12343 | 66.01163 | 35132 ft | 497 kts | 101° |
| 2026-04-29 10:20 | 57.11475 | 66.13835 | 35132 ft | 496 kts | 101° |
| 2026-04-29 10:21 | 57.10591 | 66.26572 | 35132 ft | 497 kts | 101° |
| 2026-04-29 10:21 | 57.09697 | 66.39280 | 35132 ft | 495 kts | 101° |
| 2026-04-29 10:22 | 57.08794 | 66.51903 | 35133 ft | 497 kts | 101° |
| 2026-04-29 10:22 | 57.07881 | 66.64507 | 35132 ft | 496 kts | 101° |
| 2026-04-29 10:23 | 57.06959 | 66.77089 | 35139 ft | 496 kts | 102° |
| 2026-04-29 10:23 | 57.06022 | 66.89670 | 35131 ft | 496 kts | 102° |
| 2026-04-29 10:24 | 57.05001 | 67.02284 | 35135 ft | 495 kts | 103° |
| 2026-04-29 10:24 | 57.03905 | 67.14809 | 35129 ft | 491 kts | 103° |
| 2026-04-29 10:25 | 57.02815 | 67.27287 | 35128 ft | 491 kts | 103° |
| 2026-04-29 10:25 | 57.01719 | 67.39753 | 35129 ft | 492 kts | 103° |
| 2026-04-29 10:26 | 57.00739 | 67.50789 | 35130 ft | 492 kts | 102° |
| 2026-04-29 10:26 | 56.99630 | 67.63135 | 35130 ft | 492 kts | 102° |
| 2026-04-29 10:27 | 56.97942 | 67.81716 | 35165 ft | 493 kts | 103° |
| 2026-04-29 10:28 | 56.96800 | 67.94087 | 35193 ft | 494 kts | 103° |
| 2026-04-29 10:28 | 56.95638 | 68.06517 | 35186 ft | 494 kts | 103° |
| 2026-04-29 10:29 | 56.94475 | 68.18829 | 35187 ft | 494 kts | 103° |
| 2026-04-29 10:29 | 56.93290 | 68.31227 | 35184 ft | 494 kts | 103° |
| 2026-04-29 10:30 | 56.92093 | 68.43619 | 35186 ft | 493 kts | 103° |
| 2026-04-29 10:30 | 56.90889 | 68.55961 | 35188 ft | 494 kts | 103° |
| 2026-04-29 10:31 | 56.89667 | 68.68304 | 35170 ft | 494 kts | 104° |
| 2026-04-29 10:31 | 56.88434 | 68.80422 | 35186 ft | 493 kts | 104° |
| 2026-04-29 10:32 | 56.87198 | 68.92600 | 35189 ft | 493 kts | 104° |
| 2026-04-29 10:32 | 56.85941 | 69.04926 | 35190 ft | 492 kts | 104° |
| 2026-04-29 10:33 | 56.84672 | 69.17252 | 35186 ft | 491 kts | 104° |
| 2026-04-29 10:33 | 56.83409 | 69.29415 | 35191 ft | 492 kts | 104° |
| 2026-04-29 10:34 | 56.82113 | 69.41761 | 35190 ft | 491 kts | 104° |
| 2026-04-29 10:34 | 56.80804 | 69.54101 | 35192 ft | 492 kts | 104° |
| 2026-04-29 10:35 | 56.79494 | 69.66338 | 35184 ft | 491 kts | 105° |
| 2026-04-29 10:35 | 56.78172 | 69.78598 | 35188 ft | 492 kts | 105° |
| 2026-04-29 10:36 | 56.76846 | 69.90760 | 35192 ft | 492 kts | 105° |
| 2026-04-29 10:36 | 56.75491 | 70.03056 | 35189 ft | 490 kts | 104° |
| 2026-04-29 10:37 | 56.74136 | 70.15226 | 35188 ft | 491 kts | 105° |
| 2026-04-29 10:37 | 56.72749 | 70.27436 | 35191 ft | 490 kts | 105° |
| 2026-04-29 10:38 | 56.71259 | 70.39580 | 35190 ft | 490 kts | 106° |
| 2026-04-29 10:38 | 56.69769 | 70.51672 | 35189 ft | 490 kts | 105° |
| 2026-04-29 10:39 | 56.68266 | 70.63821 | 35189 ft | 491 kts | 105° |
| 2026-04-29 10:39 | 56.66767 | 70.75888 | 35195 ft | 491 kts | 106° |
| 2026-04-29 10:40 | 56.65241 | 70.88050 | 35189 ft | 490 kts | 107° |
| 2026-04-29 10:40 | 56.63710 | 71.00137 | 35187 ft | 489 kts | 107° |
| 2026-04-29 10:41 | 56.62175 | 71.12139 | 35206 ft | 487 kts | 107° |
| 2026-04-29 10:41 | 56.60625 | 71.24165 | 35239 ft | 488 kts | 107° |
| 2026-04-29 10:42 | 56.59074 | 71.36096 | 35247 ft | 488 kts | 107° |
| 2026-04-29 10:42 | 56.57501 | 71.48104 | 35240 ft | 489 kts | 107° |
| 2026-04-29 10:43 | 56.55920 | 71.60074 | 35239 ft | 488 kts | 107° |
| 2026-04-29 10:43 | 56.54340 | 71.71956 | 35239 ft | 487 kts | 108° |
| 2026-04-29 10:44 | 56.52736 | 71.83937 | 35242 ft | 487 kts | 108° |
| 2026-04-29 10:44 | 56.51117 | 71.95905 | 35246 ft | 487 kts | 108° |
| 2026-04-29 10:45 | 56.49493 | 72.07814 | 35247 ft | 487 kts | 108° |
| 2026-04-29 10:45 | 56.47854 | 72.19737 | 35246 ft | 487 kts | 108° |
| 2026-04-29 10:46 | 56.46195 | 72.31710 | 35243 ft | 487 kts | 108° |
| 2026-04-29 10:46 | 56.44519 | 72.43718 | 35244 ft | 488 kts | 108° |
| 2026-04-29 10:47 | 56.42839 | 72.55656 | 35246 ft | 488 kts | 108° |
| 2026-04-29 10:47 | 56.41157 | 72.67516 | 35232 ft | 488 kts | 108° |
| 2026-04-29 10:48 | 56.39459 | 72.79437 | 35246 ft | 488 kts | 108° |
| 2026-04-29 10:48 | 56.37752 | 72.91312 | 35244 ft | 487 kts | 108° |
| 2026-04-29 10:49 | 56.36039 | 73.03123 | 35246 ft | 487 kts | 109° |
| 2026-04-29 10:49 | 56.34314 | 73.14926 | 35244 ft | 490 kts | 109° |
| 2026-04-29 10:50 | 56.32569 | 73.26775 | 35244 ft | 490 kts | 109° |
| 2026-04-29 10:50 | 56.30810 | 73.38642 | 35244 ft | 489 kts | 109° |
| 2026-04-29 10:51 | 56.29040 | 73.50487 | 35245 ft | 490 kts | 109° |
| 2026-04-29 10:51 | 56.27245 | 73.62414 | 35241 ft | 490 kts | 109° |
| 2026-04-29 10:52 | 56.25444 | 73.74320 | 35248 ft | 489 kts | 110° |
| 2026-04-29 10:52 | 56.23637 | 73.86179 | 35246 ft | 489 kts | 110° |
| 2026-04-29 10:53 | 56.21752 | 73.98111 | 35249 ft | 488 kts | 112° |
| 2026-04-29 10:53 | 56.19659 | 74.09650 | 35243 ft | 488 kts | 112° |
| 2026-04-29 10:54 | 56.17559 | 74.21244 | 35244 ft | 488 kts | 112° |
| 2026-04-29 10:54 | 56.15476 | 74.32783 | 35242 ft | 489 kts | 112° |
| 2026-04-29 10:55 | 56.13381 | 74.44339 | 35242 ft | 487 kts | 112° |
| 2026-04-29 10:55 | 56.11277 | 74.55872 | 35241 ft | 488 kts | 112° |
| 2026-04-29 10:56 | 56.09173 | 74.67339 | 35230 ft | 487 kts | 113° |
| 2026-04-29 10:56 | 56.07051 | 74.78863 | 35248 ft | 488 kts | 113° |
| 2026-04-29 10:57 | 56.04927 | 74.90311 | 35242 ft | 487 kts | 113° |
| 2026-04-29 10:57 | 56.02774 | 75.01826 | 35246 ft | 488 kts | 112° |
| 2026-04-29 10:58 | 56.00600 | 75.13382 | 35244 ft | 490 kts | 112° |
| 2026-04-29 10:58 | 55.98410 | 75.24960 | 35242 ft | 490 kts | 112° |
| 2026-04-29 10:59 | 55.96201 | 75.36558 | 35243 ft | 490 kts | 112° |
| 2026-04-29 10:59 | 55.93977 | 75.48169 | 35247 ft | 491 kts | 112° |
| 2026-04-29 11:00 | 55.91771 | 75.59619 | 35246 ft | 491 kts | 113° |
| 2026-04-29 11:00 | 55.89547 | 75.71095 | 35231 ft | 489 kts | 114° |
| 2026-04-29 11:01 | 55.87286 | 75.82570 | 35245 ft | 489 kts | 114° |
| 2026-04-29 11:01 | 55.85053 | 75.93898 | 35244 ft | 490 kts | 114° |
| 2026-04-29 11:02 | 55.82793 | 76.05349 | 35241 ft | 490 kts | 114° |
| 2026-04-29 11:02 | 55.80543 | 76.16688 | 35246 ft | 489 kts | 114° |
| 2026-04-29 11:03 | 55.78260 | 76.28117 | 35052 ft | 493 kts | 113° |
| 2026-04-29 11:03 | 55.75980 | 76.39479 | 35096 ft | 491 kts | 114° |
| 2026-04-29 11:04 | 55.73681 | 76.50867 | 35091 ft | 488 kts | 114° |
| 2026-04-29 11:04 | 55.71378 | 76.62202 | 35097 ft | 492 kts | 113° |
| 2026-04-29 11:05 | 55.69041 | 76.73667 | 35097 ft | 490 kts | 114° |
| 2026-04-29 11:05 | 55.66726 | 76.84961 | 35095 ft | 490 kts | 114° |
| 2026-04-29 11:06 | 55.64367 | 76.96374 | 35091 ft | 494 kts | 114° |
| 2026-04-29 11:06 | 55.61995 | 77.07803 | 35097 ft | 496 kts | 113° |
| 2026-04-29 11:07 | 55.59623 | 77.19151 | 35101 ft | 495 kts | 113° |
| 2026-04-29 11:07 | 55.57234 | 77.30524 | 35092 ft | 493 kts | 113° |
| 2026-04-29 11:08 | 55.54822 | 77.41934 | 35092 ft | 495 kts | 114° |
| 2026-04-29 11:08 | 55.52412 | 77.53277 | 35092 ft | 494 kts | 113° |
| 2026-04-29 11:09 | 55.49977 | 77.64665 | 35085 ft | 494 kts | 113° |
| 2026-04-29 11:09 | 55.47538 | 77.76048 | 35098 ft | 494 kts | 114° |
| 2026-04-29 11:10 | 55.45100 | 77.87347 | 35096 ft | 497 kts | 114° |
| 2026-04-29 11:10 | 55.42644 | 77.98662 | 35090 ft | 491 kts | 114° |
| 2026-04-29 11:11 | 55.40177 | 78.09943 | 35099 ft | 497 kts | 114° |
| 2026-04-29 11:11 | 55.37702 | 78.21215 | 35100 ft | 493 kts | 114° |
| 2026-04-29 11:12 | 55.35241 | 78.32548 | 35094 ft | 494 kts | 110° |
| 2026-04-29 11:12 | 55.34549 | 78.38468 | 35113 ft | 499 kts | 97° |
| 2026-04-29 11:12 | 55.34251 | 78.44528 | 35102 ft | 503 kts | 96° |
| 2026-04-29 11:13 | 55.33542 | 78.56621 | 35100 ft | 501 kts | 98° |
| 2026-04-29 11:13 | 55.32611 | 78.68748 | 35076 ft | 497 kts | 100° |
| 2026-04-29 11:14 | 55.31620 | 78.80860 | 35089 ft | 500 kts | 100° |
| 2026-04-29 11:14 | 55.30615 | 78.92915 | 35091 ft | 498 kts | 101° |
| 2026-04-29 11:15 | 55.29599 | 79.04933 | 35098 ft | 496 kts | 100° |
| 2026-04-29 11:15 | 55.28584 | 79.16818 | 35100 ft | 493 kts | 99° |
| 2026-04-29 11:16 | 55.27567 | 79.28581 | 35094 ft | 490 kts | 99° |
| 2026-04-29 11:16 | 55.26529 | 79.40432 | 35093 ft | 490 kts | 100° |
| 2026-04-29 11:17 | 55.25482 | 79.52244 | 35101 ft | 490 kts | 99° |
| 2026-04-29 11:17 | 55.24427 | 79.64038 | 34992 ft | 485 kts | 99° |
| 2026-04-29 11:17 | 55.23904 | 79.69871 | 34616 ft | 480 kts | 100° |
| 2026-04-29 11:18 | 55.23383 | 79.75636 | 34195 ft | 476 kts | 100° |
| 2026-04-29 11:18 | 55.22860 | 79.81363 | 33753 ft | 473 kts | 101° |
| 2026-04-29 11:18 | 55.22338 | 79.87049 | 33340 ft | 469 kts | 101° |
| 2026-04-29 11:18 | 55.21818 | 79.92676 | 32929 ft | 466 kts | 101° |
| 2026-04-29 11:19 | 55.21301 | 79.98248 | 32529 ft | 462 kts | 101° |
| 2026-04-29 11:19 | 55.20788 | 80.03760 | 32141 ft | 459 kts | 101° |
| 2026-04-29 11:19 | 55.20271 | 80.09279 | 31722 ft | 456 kts | 101° |
| 2026-04-29 11:19 | 55.19746 | 80.14838 | 31226 ft | 455 kts | 101° |
| 2026-04-29 11:20 | 55.19230 | 80.20295 | 30754 ft | 453 kts | 101° |
| 2026-04-29 11:20 | 55.18716 | 80.25693 | 30297 ft | 451 kts | 101° |
| 2026-04-29 11:20 | 55.18368 | 80.29337 | 29986 ft | 449 kts | 101° |
| 2026-04-29 11:21 | 55.18065 | 80.32499 | 29728 ft | 448 kts | 101° |
| 2026-04-29 11:21 | 55.17879 | 80.34434 | 29577 ft | 447 kts | 101° |
| 2026-04-29 11:22 | 55.17368 | 80.39735 | 29145 ft | 444 kts | 101° |
| 2026-04-29 11:22 | 55.16859 | 80.44997 | 28722 ft | 441 kts | 101° |
| 2026-04-29 11:22 | 55.16342 | 80.50317 | 28304 ft | 437 kts | 101° |
| 2026-04-29 11:22 | 55.15835 | 80.55503 | 27898 ft | 434 kts | 101° |
| 2026-04-29 11:23 | 55.15320 | 80.60753 | 27483 ft | 430 kts | 101° |
| 2026-04-29 11:23 | 55.14819 | 80.65849 | 27080 ft | 426 kts | 102° |
| 2026-04-29 11:23 | 55.14318 | 80.70909 | 26597 ft | 424 kts | 102° |
| 2026-04-29 11:23 | 55.13811 | 80.76012 | 26113 ft | 422 kts | 102° |
| 2026-04-29 11:24 | 55.13343 | 80.80712 | 25678 ft | 420 kts | 102° |
| 2026-04-29 11:24 | 55.12918 | 80.84944 | 25275 ft | 417 kts | 102° |
| 2026-04-29 11:24 | 55.12340 | 80.90674 | 24752 ft | 413 kts | 102° |
| 2026-04-29 11:24 | 55.11865 | 80.95590 | 24299 ft | 411 kts | 98° |
| 2026-04-29 11:25 | 55.11974 | 81.00591 | 23812 ft | 411 kts | 78° |
| 2026-04-29 11:25 | 55.12667 | 81.05364 | 23371 ft | 407 kts | 76° |
| 2026-04-29 11:25 | 55.12753 | 81.05971 | 23315 ft | 407 kts | 77° |
| 2026-04-29 11:25 | 55.13110 | 81.08587 | 23075 ft | 405 kts | 77° |
| 2026-04-29 11:26 | 55.14296 | 81.18087 | 22218 ft | 399 kts | 78° |
| 2026-04-29 11:26 | 55.14724 | 81.21671 | 21891 ft | 396 kts | 78° |
| 2026-04-29 11:26 | 55.14915 | 81.23282 | 21744 ft | 395 kts | 78° |
| 2026-04-29 11:27 | 55.15471 | 81.28017 | 21313 ft | 391 kts | 78° |
| 2026-04-29 11:27 | 55.16021 | 81.32718 | 20888 ft | 387 kts | 78° |
| 2026-04-29 11:27 | 55.16552 | 81.37275 | 20474 ft | 384 kts | 78° |
| 2026-04-29 11:27 | 55.17082 | 81.41830 | 20058 ft | 380 kts | 79° |
| 2026-04-29 11:28 | 55.17608 | 81.46373 | 19645 ft | 377 kts | 78° |
| 2026-04-29 11:28 | 55.18125 | 81.50851 | 19235 ft | 373 kts | 78° |
| 2026-04-29 11:28 | 55.18635 | 81.55288 | 18825 ft | 370 kts | 79° |
| 2026-04-29 11:28 | 55.19138 | 81.59679 | 18417 ft | 367 kts | 78° |
| 2026-04-29 11:29 | 55.19635 | 81.64024 | 18011 ft | 363 kts | 78° |
| 2026-04-29 11:29 | 55.20124 | 81.68330 | 17563 ft | 362 kts | 79° |
| 2026-04-29 11:29 | 55.20615 | 81.72670 | 17140 ft | 358 kts | 79° |
| 2026-04-29 11:29 | 55.21092 | 81.76904 | 16849 ft | 351 kts | 79° |
| 2026-04-29 11:30 | 55.21566 | 81.81130 | 16593 ft | 344 kts | 79° |
| 2026-04-29 11:30 | 55.22018 | 81.85202 | 16324 ft | 337 kts | 79° |
| 2026-04-29 11:30 | 55.22464 | 81.89197 | 16044 ft | 332 kts | 79° |
| 2026-04-29 11:30 | 55.22903 | 81.93129 | 15756 ft | 327 kts | 79° |
| 2026-04-29 11:31 | 55.23335 | 81.97006 | 15461 ft | 323 kts | 79° |
| 2026-04-29 11:31 | 55.23624 | 81.99610 | 15245 ft | 321 kts | 79° |
| 2026-04-29 11:31 | 55.24048 | 82.03439 | 14891 ft | 319 kts | 79° |
| 2026-04-29 11:31 | 55.24466 | 82.07223 | 14542 ft | 317 kts | 79° |
| 2026-04-29 11:32 | 55.24882 | 82.11003 | 14197 ft | 315 kts | 79° |
| 2026-04-29 11:32 | 55.25293 | 82.14744 | 13855 ft | 313 kts | 79° |
| 2026-04-29 11:32 | 55.25700 | 82.18468 | 13515 ft | 310 kts | 79° |
| 2026-04-29 11:32 | 55.26105 | 82.22182 | 13177 ft | 308 kts | 79° |
| 2026-04-29 11:33 | 55.26506 | 82.25871 | 12840 ft | 306 kts | 79° |
| 2026-04-29 11:33 | 55.26904 | 82.29542 | 12505 ft | 303 kts | 79° |
| 2026-04-29 11:33 | 55.27235 | 82.33186 | 12179 ft | 300 kts | 87° |
| 2026-04-29 11:33 | 55.27086 | 82.36781 | 11871 ft | 296 kts | 105° |
| 2026-04-29 11:34 | 55.26261 | 82.40047 | 11556 ft | 291 kts | 126° |
| 2026-04-29 11:34 | 55.24898 | 82.42591 | 11257 ft | 286 kts | 144° |
| 2026-04-29 11:34 | 55.23215 | 82.44337 | 10959 ft | 282 kts | 153° |
| 2026-04-29 11:34 | 55.21462 | 82.45924 | 10640 ft | 280 kts | 153° |
| 2026-04-29 11:35 | 55.19737 | 82.47478 | 10294 ft | 280 kts | 153° |
| 2026-04-29 11:35 | 55.18002 | 82.49041 | 9898 ft | 281 kts | 153° |
| 2026-04-29 11:35 | 55.16267 | 82.50600 | 9519 ft | 281 kts | 153° |
| 2026-04-29 11:35 | 55.14531 | 82.52158 | 9149 ft | 281 kts | 153° |
| 2026-04-29 11:36 | 55.12802 | 82.53709 | 8784 ft | 281 kts | 153° |
| 2026-04-29 11:36 | 55.11043 | 82.55286 | 8421 ft | 279 kts | 153° |
| 2026-04-29 11:36 | 55.09321 | 82.56827 | 7997 ft | 281 kts | 153° |
| 2026-04-29 11:36 | 55.07570 | 82.58393 | 7563 ft | 282 kts | 153° |
| 2026-04-29 11:37 | 55.05842 | 82.59937 | 7152 ft | 282 kts | 153° |
| 2026-04-29 11:37 | 55.04083 | 82.61507 | 6743 ft | 282 kts | 153° |
| 2026-04-29 11:37 | 55.02353 | 82.63049 | 6392 ft | 279 kts | 153° |
| 2026-04-29 11:37 | 55.00696 | 82.64831 | 6069 ft | 276 kts | 138° |
| 2026-04-29 11:38 | 54.99472 | 82.67343 | 5729 ft | 274 kts | 129° |
| 2026-04-29 11:38 | 54.98327 | 82.70021 | 5402 ft | 271 kts | 127° |
| 2026-04-29 11:38 | 54.97234 | 82.72659 | 5147 ft | 266 kts | 127° |
| 2026-04-29 11:38 | 54.96157 | 82.75232 | 4902 ft | 261 kts | 127° |
| 2026-04-29 11:39 | 54.95117 | 82.77786 | 4697 ft | 254 kts | 126° |
| 2026-04-29 11:39 | 54.94113 | 82.80308 | 4471 ft | 249 kts | 126° |
| 2026-04-29 11:39 | 54.93137 | 82.82765 | 4231 ft | 245 kts | 126° |
| 2026-04-29 11:39 | 54.92194 | 82.85178 | 4002 ft | 241 kts | 125° |
| 2026-04-29 11:40 | 54.91263 | 82.87599 | 3805 ft | 236 kts | 125° |
| 2026-04-29 11:40 | 54.90367 | 82.89945 | 3636 ft | 230 kts | 124° |
| 2026-04-29 11:40 | 54.89964 | 82.91029 | 3554 ft | 227 kts | 124° |
| 2026-04-29 11:40 | 54.89722 | 82.91684 | 3495 ft | 226 kts | 124° |
| 2026-04-29 11:41 | 54.89033 | 82.94037 | 3415 ft | 217 kts | 108° |
| 2026-04-29 11:41 | 54.88839 | 82.96638 | 3313 ft | 222 kts | 86° |
| 2026-04-29 11:41 | 54.89301 | 82.99237 | 3236 ft | 225 kts | 58° |
| 2026-04-29 11:42 | 54.90273 | 83.01297 | 3188 ft | 220 kts | 40° |
| 2026-04-29 11:42 | 54.91578 | 83.02536 | 3180 ft | 215 kts | 12° |
| 2026-04-29 11:42 | 54.93099 | 83.02556 | 3114 ft | 224 kts | 342° |
| 2026-04-29 11:42 | 54.94461 | 83.01302 | 3000 ft | 221 kts | 321° |
| 2026-04-29 11:43 | 54.95654 | 82.99697 | 2910 ft | 212 kts | 320° |
| 2026-04-29 11:43 | 54.96524 | 82.98469 | 2898 ft | 199 kts | 319° |
| 2026-04-29 11:43 | 54.97391 | 82.97218 | 2897 ft | 186 kts | 319° |
| 2026-04-29 11:43 | 54.98317 | 82.95852 | 2919 ft | 166 kts | 317° |
| 2026-04-29 11:44 | 54.99157 | 82.94550 | 2899 ft | 160 kts | 316° |
| 2026-04-29 11:44 | 54.99995 | 82.93197 | 2939 ft | 165 kts | 314° |
| 2026-04-29 11:44 | 55.00786 | 82.91823 | 2907 ft | 155 kts | 312° |
| 2026-04-29 11:44 | 55.01503 | 82.90475 | 2850 ft | 151 kts | 308° |
| 2026-04-29 11:45 | 55.02179 | 82.88981 | 2878 ft | 163 kts | 301° |
| 2026-04-29 11:45 | 55.02707 | 82.87210 | 2737 ft | 160 kts | 287° |
| 2026-04-29 11:45 | 55.02920 | 82.85371 | 2389 ft | 153 kts | 271° |
| 2026-04-29 11:45 | 55.02886 | 82.83586 | 2135 ft | 142 kts | 261° |
| 2026-04-29 11:46 | 55.02744 | 82.81853 | 1964 ft | 148 kts | 258° |
| 2026-04-29 11:46 | 55.02576 | 82.80079 | 1775 ft | 147 kts | 258° |
| 2026-04-29 11:46 | 55.02419 | 82.78355 | 1598 ft | 143 kts | 259° |
| 2026-04-29 11:46 | 55.02268 | 82.76611 | 1398 ft | 145 kts | 258° |
| 2026-04-29 11:47 | 55.02117 | 82.74889 | 1207 ft | 143 kts | 259° |
| 2026-04-29 11:47 | 55.01962 | 82.73164 | 1017 ft | 147 kts | 258° |
| 2026-04-29 11:47 | 55.01804 | 82.71377 | 819 ft | 150 kts | 259° |
| 2026-04-29 11:47 | 55.01647 | 82.69585 | 618 ft | 149 kts | 258° |
| 2026-04-29 11:48 | 55.01495 | 82.67790 | 412 ft | 150 kts | 258° |
| 2026-04-29 11:48 | 55.01335 | 82.66084 | 380 ft | 126 kts | 261° |
| 2026-04-29 11:48 | 55.01237 | 82.64977 | 380 ft | 63 kts | 261° |
| 2026-04-29 11:48 | 55.01183 | 82.64368 | 380 ft | 42 kts | 260° |
| 2026-04-29 11:49 | 55.01151 | 82.64047 | 379 ft | 15 kts | 255° |
| 2026-04-29 11:49 | 55.01075 | 82.63992 | 379 ft | 13 kts | 172° |
| 2026-04-29 11:49 | 55.00996 | 82.64047 | 379 ft | 12 kts | 115° |
| 2026-04-29 11:49 | 55.00975 | 82.64196 | 379 ft | 13 kts | 103° |
| 2026-04-29 11:50 | 55.00955 | 82.64354 | 379 ft | 13 kts | 103° |
| 2026-04-29 11:50 | 55.00932 | 82.64523 | 380 ft | 14 kts | 103° |
| 2026-04-29 11:50 | 55.00909 | 82.64701 | 380 ft | 15 kts | 103° |
| 2026-04-29 11:50 | 55.00885 | 82.64888 | 379 ft | 16 kts | 103° |
| 2026-04-29 11:51 | 55.00874 | 82.65083 | 380 ft | 16 kts | 81° |
| 2026-04-29 11:51 | 55.00885 | 82.65288 | 380 ft | 17 kts | 85° |
| 2026-04-29 11:51 | 55.00903 | 82.65502 | 379 ft | 18 kts | 81° |
| 2026-04-29 11:51 | 55.00922 | 82.65721 | 379 ft | 18 kts | 81° |
| 2026-04-29 11:52 | 55.00943 | 82.65949 | 380 ft | 19 kts | 82° |
| 2026-04-29 11:52 | 55.00964 | 82.66181 | 379 ft | 19 kts | 79° |
| 2026-04-29 11:52 | 55.01025 | 82.66395 | 380 ft | 20 kts | 68° |
| 2026-04-29 11:52 | 55.01076 | 82.66625 | 379 ft | 20 kts | 69° |
| 2026-04-29 11:53 | 55.01096 | 82.66840 | 379 ft | 11 kts | 101° |
| 2026-04-29 11:53 | 55.01082 | 82.66977 | 379 ft | 12 kts | 82° |
| 2026-04-29 11:53 | 55.01095 | 82.67127 | 379 ft | 12 kts | 81° |
| 2026-04-29 11:53 | 55.01110 | 82.67287 | 380 ft | 13 kts | 81° |
| 2026-04-29 11:54 | 55.01084 | 82.67432 | 380 ft | 14 kts | 160° |
| 2026-04-29 11:54 | 55.00985 | 82.67462 | 379 ft | 14 kts | 171° |
| 2026-04-29 11:54 | 55.00882 | 82.67490 | 379 ft | 15 kts | 171° |
| 2026-04-29 11:54 | 55.00793 | 82.67534 | 379 ft | 11 kts | 132° |
| 2026-04-29 11:55 | 55.00779 | 82.67680 | 379 ft | 12 kts | 92° |
| 2026-04-29 11:55 | 55.00778 | 82.67840 | 379 ft | 13 kts | 92° |
| 2026-04-29 11:55 | 55.00776 | 82.67972 | 379 ft | 7 kts | 89° |
| 2026-04-29 11:55 | 55.00817 | 82.68017 | 379 ft | 8 kts | 357° |
| 2026-04-29 11:56 | 55.00838 | 82.67988 | 379 ft | 4 kts | 289° |
| 2026-04-29 11:56 | 55.00832 | 82.67944 | 379 ft | 3 kts | 208° |
| 2026-04-29 11:56 | 55.00819 | 82.67941 | 379 ft | 0 kts | 181° |